sensor_id;sensor_type;location;lat;lon;timestamp;P1;durP1;ratioP1;P2;durP2;ratioP2
49177;SDS011;35016;55.674;37.468;2022-11-21T00:03:59;14.13;;;8.65;;
49177;SDS011;35016;55.674;37.468;2022-11-21T00:06:26;14.93;;;7.32;;
49177;SDS011;35016;55.674;37.468;2022-11-21T00:08:54;16.38;;;9.43;;
49177;SDS011;35016;55.674;37.468;2022-11-21T00:11:21;15.10;;;8.10;;
49177;SDS011;35016;55.674;37.468;2022-11-21T00:13:48;16.20;;;8.90;;
49177;SDS011;35016;55.674;37.468;2022-11-21T00:16:15;16.30;;;8.43;;
49177;SDS011;35016;55.674;37.468;2022-11-21T00:18:43;16.52;;;7.93;;
49177;SDS011;35016;55.674;37.468;2022-11-21T00:21:14;15.75;;;8.68;;
49177;SDS011;35016;55.674;37.468;2022-11-21T00:23:43;16.50;;;9.57;;
49177;SDS011;35016;55.674;37.468;2022-11-21T00:26:11;15.95;;;8.63;;
49177;SDS011;35016;55.674;37.468;2022-11-21T00:28:39;13.65;;;8.38;;
49177;SDS011;35016;55.674;37.468;2022-11-21T00:31:07;17.02;;;9.15;;
49177;SDS011;35016;55.674;37.468;2022-11-21T00:33:34;16.35;;;9.02;;
49177;SDS011;35016;55.674;37.468;2022-11-21T00:36:08;16.83;;;8.07;;
49177;SDS011;35016;55.674;37.468;2022-11-21T00:38:36;14.65;;;8.00;;
49177;SDS011;35016;55.674;37.468;2022-11-21T00:41:04;16.30;;;7.88;;
49177;SDS011;35016;55.674;37.468;2022-11-21T00:43:31;15.38;;;9.80;;
49177;SDS011;35016;55.674;37.468;2022-11-21T00:45:58;14.60;;;8.68;;
49177;SDS011;35016;55.674;37.468;2022-11-21T00:48:29;17.75;;;9.45;;
49177;SDS011;35016;55.674;37.468;2022-11-21T00:50:57;16.25;;;8.00;;
49177;SDS011;35016;55.674;37.468;2022-11-21T00:53:26;15.98;;;8.82;;
49177;SDS011;35016;55.674;37.468;2022-11-21T00:55:53;13.63;;;8.07;;
49177;SDS011;35016;55.674;37.468;2022-11-21T00:58:21;15.77;;;9.35;;
49177;SDS011;35016;55.674;37.468;2022-11-21T01:00:48;16.63;;;9.48;;
49177;SDS011;35016;55.674;37.468;2022-11-21T01:03:15;18.13;;;9.15;;
49177;SDS011;35016;55.674;37.468;2022-11-21T01:05:43;16.40;;;9.85;;
49177;SDS011;35016;55.674;37.468;2022-11-21T01:08:10;15.10;;;9.13;;
49177;SDS011;35016;55.674;37.468;2022-11-21T01:10:37;14.93;;;9.50;;
49177;SDS011;35016;55.674;37.468;2022-11-21T01:13:04;13.20;;;8.60;;
49177;SDS011;35016;55.674;37.468;2022-11-21T01:15:32;16.67;;;9.80;;
49177;SDS011;35016;55.674;37.468;2022-11-21T01:18:00;18.85;;;9.98;;
49177;SDS011;35016;55.674;37.468;2022-11-21T01:20:27;15.57;;;8.82;;
49177;SDS011;35016;55.674;37.468;2022-11-21T01:22:54;17.48;;;9.05;;
49177;SDS011;35016;55.674;37.468;2022-11-21T01:25:21;17.75;;;9.35;;
49177;SDS011;35016;55.674;37.468;2022-11-21T01:27:48;16.00;;;8.23;;
49177;SDS011;35016;55.674;37.468;2022-11-21T01:30:15;17.85;;;10.13;;
49177;SDS011;35016;55.674;37.468;2022-11-21T01:32:47;14.35;;;8.10;;
49177;SDS011;35016;55.674;37.468;2022-11-21T01:35:22;14.30;;;8.60;;
49177;SDS011;35016;55.674;37.468;2022-11-21T01:37:51;16.15;;;9.15;;
49177;SDS011;35016;55.674;37.468;2022-11-21T01:40:18;16.38;;;8.63;;
49177;SDS011;35016;55.674;37.468;2022-11-21T01:51:04;14.52;;;7.95;;
49177;SDS011;35016;55.674;37.468;2022-11-21T01:53:45;13.63;;;6.18;;
49177;SDS011;35016;55.674;37.468;2022-11-21T01:56:36;12.98;;;6.25;;
49177;SDS011;35016;55.674;37.468;2022-11-21T01:59:10;15.07;;;6.75;;
49177;SDS011;35016;55.674;37.468;2022-11-21T02:01:43;16.15;;;7.72;;
49177;SDS011;35016;55.674;37.468;2022-11-21T02:04:12;11.35;;;6.15;;
49177;SDS011;35016;55.674;37.468;2022-11-21T02:06:40;14.60;;;7.28;;
49177;SDS011;35016;55.674;37.468;2022-11-21T02:09:07;13.05;;;7.68;;
49177;SDS011;35016;55.674;37.468;2022-11-21T02:11:39;13.52;;;6.97;;
49177;SDS011;35016;55.674;37.468;2022-11-21T02:14:10;14.20;;;6.38;;
49177;SDS011;35016;55.674;37.468;2022-11-21T02:16:37;14.73;;;7.13;;
49177;SDS011;35016;55.674;37.468;2022-11-21T02:19:06;13.18;;;7.10;;
49177;SDS011;35016;55.674;37.468;2022-11-21T02:27:00;14.65;;;7.10;;
49177;SDS011;35016;55.674;37.468;2022-11-21T02:29:28;14.23;;;7.18;;
49177;SDS011;35016;55.674;37.468;2022-11-21T02:32:02;14.30;;;7.30;;
49177;SDS011;35016;55.674;37.468;2022-11-21T02:34:31;18.17;;;7.15;;
49177;SDS011;35016;55.674;37.468;2022-11-21T02:36:59;14.40;;;7.50;;
49177;SDS011;35016;55.674;37.468;2022-11-21T02:39:32;15.32;;;7.82;;
49177;SDS011;35016;55.674;37.468;2022-11-21T02:42:05;15.02;;;7.78;;
49177;SDS011;35016;55.674;37.468;2022-11-21T02:44:39;15.63;;;7.97;;
49177;SDS011;35016;55.674;37.468;2022-11-21T02:47:12;15.27;;;8.63;;
49177;SDS011;35016;55.674;37.468;2022-11-21T02:49:41;14.88;;;8.23;;
49177;SDS011;35016;55.674;37.468;2022-11-21T02:52:16;17.33;;;9.27;;
49177;SDS011;35016;55.674;37.468;2022-11-21T02:54:43;12.40;;;7.30;;
49177;SDS011;35016;55.674;37.468;2022-11-21T02:57:10;19.48;;;8.82;;
49177;SDS011;35016;55.674;37.468;2022-11-21T02:59:37;16.17;;;7.82;;
49177;SDS011;35016;55.674;37.468;2022-11-21T03:02:04;18.35;;;8.73;;
49177;SDS011;35016;55.674;37.468;2022-11-21T03:04:32;18.00;;;8.98;;
49177;SDS011;35016;55.674;37.468;2022-11-21T03:06:59;16.38;;;8.68;;
49177;SDS011;35016;55.674;37.468;2022-11-21T03:09:29;17.70;;;8.52;;
49177;SDS011;35016;55.674;37.468;2022-11-21T03:11:56;16.60;;;9.93;;
49177;SDS011;35016;55.674;37.468;2022-11-21T03:14:23;15.18;;;8.63;;
49177;SDS011;35016;55.674;37.468;2022-11-21T03:16:50;17.30;;;8.18;;
49177;SDS011;35016;55.674;37.468;2022-11-21T03:19:17;17.77;;;9.35;;
49177;SDS011;35016;55.674;37.468;2022-11-21T03:21:44;18.30;;;9.45;;
49177;SDS011;35016;55.674;37.468;2022-11-21T03:24:11;20.40;;;8.18;;
49177;SDS011;35016;55.674;37.468;2022-11-21T03:26:38;15.43;;;9.18;;
49177;SDS011;35016;55.674;37.468;2022-11-21T03:29:05;17.55;;;9.15;;
49177;SDS011;35016;55.674;37.468;2022-11-21T03:31:33;20.80;;;9.18;;
49177;SDS011;35016;55.674;37.468;2022-11-21T03:34:00;15.60;;;8.48;;
49177;SDS011;35016;55.674;37.468;2022-11-21T03:36:27;13.93;;;7.63;;
49177;SDS011;35016;55.674;37.468;2022-11-21T03:38:55;13.43;;;7.72;;
49177;SDS011;35016;55.674;37.468;2022-11-21T03:41:25;11.23;;;6.65;;
49177;SDS011;35016;55.674;37.468;2022-11-21T03:43:59;13.60;;;7.78;;
49177;SDS011;35016;55.674;37.468;2022-11-21T03:46:28;15.80;;;7.65;;
49177;SDS011;35016;55.674;37.468;2022-11-21T03:48:57;11.82;;;6.88;;
49177;SDS011;35016;55.674;37.468;2022-11-21T03:51:25;16.60;;;7.13;;
49177;SDS011;35016;55.674;37.468;2022-11-21T03:53:53;14.40;;;7.45;;
49177;SDS011;35016;55.674;37.468;2022-11-21T03:56:20;17.40;;;6.85;;
49177;SDS011;35016;55.674;37.468;2022-11-21T03:58:47;15.05;;;8.30;;
49177;SDS011;35016;55.674;37.468;2022-11-21T04:01:14;15.35;;;7.45;;
49177;SDS011;35016;55.674;37.468;2022-11-21T04:03:42;13.82;;;7.93;;
49177;SDS011;35016;55.674;37.468;2022-11-21T04:06:11;17.23;;;7.60;;
49177;SDS011;35016;55.674;37.468;2022-11-21T04:08:41;14.80;;;8.60;;
49177;SDS011;35016;55.674;37.468;2022-11-21T04:11:09;12.60;;;6.70;;
49177;SDS011;35016;55.674;37.468;2022-11-21T04:13:37;16.60;;;7.00;;
49177;SDS011;35016;55.674;37.468;2022-11-21T04:16:05;15.38;;;7.53;;
49177;SDS011;35016;55.674;37.468;2022-11-21T04:18:33;15.13;;;8.00;;
49177;SDS011;35016;55.674;37.468;2022-11-21T04:21:01;17.63;;;8.63;;
49177;SDS011;35016;55.674;37.468;2022-11-21T04:23:29;15.35;;;8.20;;
49177;SDS011;35016;55.674;37.468;2022-11-21T04:25:57;18.65;;;10.23;;
49177;SDS011;35016;55.674;37.468;2022-11-21T04:28:25;14.75;;;8.70;;
49177;SDS011;35016;55.674;37.468;2022-11-21T04:30:52;15.23;;;8.63;;
49177;SDS011;35016;55.674;37.468;2022-11-21T04:33:21;20.05;;;9.45;;
49177;SDS011;35016;55.674;37.468;2022-11-21T04:35:48;21.65;;;9.60;;
49177;SDS011;35016;55.674;37.468;2022-11-21T04:38:16;18.17;;;8.75;;
49177;SDS011;35016;55.674;37.468;2022-11-21T04:40:43;12.90;;;7.85;;
49177;SDS011;35016;55.674;37.468;2022-11-21T04:43:11;18.08;;;8.82;;
49177;SDS011;35016;55.674;37.468;2022-11-21T04:45:38;18.38;;;8.57;;
49177;SDS011;35016;55.674;37.468;2022-11-21T04:48:05;16.42;;;8.73;;
49177;SDS011;35016;55.674;37.468;2022-11-21T04:50:32;14.68;;;8.23;;
49177;SDS011;35016;55.674;37.468;2022-11-21T04:53:00;14.95;;;7.25;;
49177;SDS011;35016;55.674;37.468;2022-11-21T04:55:29;15.10;;;8.13;;
49177;SDS011;35016;55.674;37.468;2022-11-21T04:57:58;13.25;;;7.63;;
49177;SDS011;35016;55.674;37.468;2022-11-21T05:00:25;15.40;;;7.40;;
49177;SDS011;35016;55.674;37.468;2022-11-21T05:02:53;15.77;;;8.52;;
49177;SDS011;35016;55.674;37.468;2022-11-21T05:05:20;17.08;;;8.43;;
49177;SDS011;35016;55.674;37.468;2022-11-21T05:07:48;18.13;;;7.78;;
49177;SDS011;35016;55.674;37.468;2022-11-21T05:10:15;17.45;;;8.52;;
49177;SDS011;35016;55.674;37.468;2022-11-21T05:12:42;15.82;;;8.00;;
49177;SDS011;35016;55.674;37.468;2022-11-21T05:15:30;14.75;;;7.18;;
49177;SDS011;35016;55.674;37.468;2022-11-21T05:17:58;12.98;;;7.22;;
49177;SDS011;35016;55.674;37.468;2022-11-21T05:20:25;14.50;;;7.38;;
49177;SDS011;35016;55.674;37.468;2022-11-21T05:23:02;13.32;;;7.47;;
49177;SDS011;35016;55.674;37.468;2022-11-21T05:25:34;13.18;;;7.32;;
49177;SDS011;35016;55.674;37.468;2022-11-21T05:28:01;13.43;;;6.95;;
49177;SDS011;35016;55.674;37.468;2022-11-21T05:30:28;14.25;;;7.30;;
49177;SDS011;35016;55.674;37.468;2022-11-21T05:32:55;10.70;;;5.57;;
49177;SDS011;35016;55.674;37.468;2022-11-21T05:35:22;13.95;;;6.65;;
49177;SDS011;35016;55.674;37.468;2022-11-21T05:37:54;15.70;;;6.40;;
49177;SDS011;35016;55.674;37.468;2022-11-21T05:40:23;13.23;;;5.55;;
49177;SDS011;35016;55.674;37.468;2022-11-21T05:42:51;15.02;;;5.95;;
49177;SDS011;35016;55.674;37.468;2022-11-21T05:45:37;14.38;;;6.10;;
49177;SDS011;35016;55.674;37.468;2022-11-21T05:48:04;14.35;;;6.32;;
49177;SDS011;35016;55.674;37.468;2022-11-21T05:50:35;14.00;;;6.07;;
49177;SDS011;35016;55.674;37.468;2022-11-21T05:53:04;10.93;;;4.97;;
49177;SDS011;35016;55.674;37.468;2022-11-21T05:55:35;13.52;;;6.10;;
49177;SDS011;35016;55.674;37.468;2022-11-21T05:58:02;10.90;;;5.25;;
49177;SDS011;35016;55.674;37.468;2022-11-21T06:00:29;10.50;;;5.07;;
49177;SDS011;35016;55.674;37.468;2022-11-21T06:02:56;11.90;;;5.93;;
49177;SDS011;35016;55.674;37.468;2022-11-21T06:05:43;11.15;;;6.35;;
49177;SDS011;35016;55.674;37.468;2022-11-21T06:08:10;12.73;;;5.85;;
49177;SDS011;35016;55.674;37.468;2022-11-21T06:10:37;12.82;;;5.82;;
49177;SDS011;35016;55.674;37.468;2022-11-21T06:13:04;14.52;;;6.22;;
49177;SDS011;35016;55.674;37.468;2022-11-21T06:18:37;11.63;;;5.72;;
49177;SDS011;35016;55.674;37.468;2022-11-21T06:21:11;13.00;;;5.88;;
49177;SDS011;35016;55.674;37.468;2022-11-21T06:23:42;11.93;;;5.65;;
49177;SDS011;35016;55.674;37.468;2022-11-21T06:26:15;14.30;;;6.25;;
49177;SDS011;35016;55.674;37.468;2022-11-21T06:28:44;12.65;;;6.32;;
49177;SDS011;35016;55.674;37.468;2022-11-21T06:31:16;12.52;;;5.60;;
49177;SDS011;35016;55.674;37.468;2022-11-21T06:33:53;14.35;;;6.80;;
49177;SDS011;35016;55.674;37.468;2022-11-21T06:36:22;13.15;;;6.40;;
49177;SDS011;35016;55.674;37.468;2022-11-21T06:38:52;12.35;;;6.07;;
49177;SDS011;35016;55.674;37.468;2022-11-21T06:41:21;12.40;;;6.15;;
49177;SDS011;35016;55.674;37.468;2022-11-21T06:43:49;13.35;;;6.47;;
49177;SDS011;35016;55.674;37.468;2022-11-21T06:46:17;13.65;;;7.55;;
49177;SDS011;35016;55.674;37.468;2022-11-21T06:48:44;15.85;;;5.85;;
49177;SDS011;35016;55.674;37.468;2022-11-21T06:51:12;14.45;;;6.15;;
49177;SDS011;35016;55.674;37.468;2022-11-21T06:53:44;14.60;;;7.03;;
49177;SDS011;35016;55.674;37.468;2022-11-21T06:56:11;12.52;;;6.82;;
49177;SDS011;35016;55.674;37.468;2022-11-21T06:58:40;11.77;;;5.82;;
49177;SDS011;35016;55.674;37.468;2022-11-21T07:01:07;14.40;;;7.70;;
49177;SDS011;35016;55.674;37.468;2022-11-21T07:03:36;11.40;;;5.40;;
49177;SDS011;35016;55.674;37.468;2022-11-21T07:06:03;14.00;;;6.93;;
49177;SDS011;35016;55.674;37.468;2022-11-21T07:08:32;14.68;;;5.40;;
49177;SDS011;35016;55.674;37.468;2022-11-21T07:11:02;12.25;;;6.07;;
49177;SDS011;35016;55.674;37.468;2022-11-21T07:13:51;12.70;;;5.10;;
49177;SDS011;35016;55.674;37.468;2022-11-21T07:16:22;11.23;;;5.95;;
49177;SDS011;35016;55.674;37.468;2022-11-21T07:18:56;13.10;;;5.93;;
49177;SDS011;35016;55.674;37.468;2022-11-21T07:21:23;10.55;;;4.97;;
49177;SDS011;35016;55.674;37.468;2022-11-21T07:23:50;11.10;;;5.95;;
49177;SDS011;35016;55.674;37.468;2022-11-21T07:26:20;13.32;;;5.90;;
49177;SDS011;35016;55.674;37.468;2022-11-21T07:28:47;14.90;;;6.68;;
49177;SDS011;35016;55.674;37.468;2022-11-21T07:31:15;13.73;;;6.50;;
49177;SDS011;35016;55.674;37.468;2022-11-21T07:33:42;11.27;;;5.78;;
49177;SDS011;35016;55.674;37.468;2022-11-21T07:36:10;14.32;;;5.60;;
49177;SDS011;35016;55.674;37.468;2022-11-21T07:38:37;13.15;;;6.35;;
49177;SDS011;35016;55.674;37.468;2022-11-21T07:41:06;16.15;;;8.05;;
49177;SDS011;35016;55.674;37.468;2022-11-21T07:43:33;12.43;;;6.65;;
49177;SDS011;35016;55.674;37.468;2022-11-21T07:46:00;12.20;;;7.03;;
49177;SDS011;35016;55.674;37.468;2022-11-21T07:48:28;10.52;;;6.10;;
49177;SDS011;35016;55.674;37.468;2022-11-21T07:50:55;15.85;;;7.20;;
49177;SDS011;35016;55.674;37.468;2022-11-21T07:53:22;15.63;;;6.03;;
49177;SDS011;35016;55.674;37.468;2022-11-21T07:55:49;15.27;;;6.57;;
49177;SDS011;35016;55.674;37.468;2022-11-21T07:58:17;11.50;;;6.65;;
49177;SDS011;35016;55.674;37.468;2022-11-21T08:00:44;13.38;;;7.20;;
49177;SDS011;35016;55.674;37.468;2022-11-21T08:03:11;13.82;;;7.07;;
49177;SDS011;35016;55.674;37.468;2022-11-21T08:05:40;15.65;;;6.95;;
49177;SDS011;35016;55.674;37.468;2022-11-21T08:08:09;15.70;;;6.53;;
49177;SDS011;35016;55.674;37.468;2022-11-21T08:10:38;14.32;;;7.38;;
49177;SDS011;35016;55.674;37.468;2022-11-21T08:13:08;19.08;;;8.43;;
49177;SDS011;35016;55.674;37.468;2022-11-21T08:15:36;17.52;;;7.57;;
49177;SDS011;35016;55.674;37.468;2022-11-21T08:18:10;15.13;;;6.80;;
49177;SDS011;35016;55.674;37.468;2022-11-21T08:20:39;13.32;;;6.72;;
49177;SDS011;35016;55.674;37.468;2022-11-21T08:23:08;15.55;;;7.78;;
49177;SDS011;35016;55.674;37.468;2022-11-21T08:25:37;14.07;;;7.72;;
49177;SDS011;35016;55.674;37.468;2022-11-21T08:28:05;15.05;;;7.28;;
49177;SDS011;35016;55.674;37.468;2022-11-21T08:30:33;14.35;;;7.95;;
49177;SDS011;35016;55.674;37.468;2022-11-21T08:33:02;15.23;;;8.18;;
49177;SDS011;35016;55.674;37.468;2022-11-21T08:35:30;13.00;;;7.50;;
49177;SDS011;35016;55.674;37.468;2022-11-21T08:37:57;13.20;;;6.78;;
49177;SDS011;35016;55.674;37.468;2022-11-21T08:40:26;14.52;;;7.65;;
49177;SDS011;35016;55.674;37.468;2022-11-21T08:43:02;15.57;;;7.72;;
49177;SDS011;35016;55.674;37.468;2022-11-21T08:45:34;12.65;;;7.25;;
49177;SDS011;35016;55.674;37.468;2022-11-21T08:48:02;13.57;;;6.32;;
49177;SDS011;35016;55.674;37.468;2022-11-21T08:50:29;12.70;;;6.75;;
49177;SDS011;35016;55.674;37.468;2022-11-21T08:52:58;11.60;;;6.47;;
49177;SDS011;35016;55.674;37.468;2022-11-21T08:55:27;13.75;;;7.38;;
49177;SDS011;35016;55.674;37.468;2022-11-21T08:57:54;15.43;;;7.68;;
49177;SDS011;35016;55.674;37.468;2022-11-21T09:00:22;12.38;;;6.05;;
49177;SDS011;35016;55.674;37.468;2022-11-21T09:02:49;15.32;;;6.32;;
49177;SDS011;35016;55.674;37.468;2022-11-21T09:05:16;12.98;;;7.35;;
49177;SDS011;35016;55.674;37.468;2022-11-21T09:07:44;14.50;;;7.55;;
49177;SDS011;35016;55.674;37.468;2022-11-21T09:10:13;13.57;;;6.53;;
49177;SDS011;35016;55.674;37.468;2022-11-21T09:12:40;12.75;;;6.60;;
49177;SDS011;35016;55.674;37.468;2022-11-21T09:15:08;13.88;;;7.65;;
49177;SDS011;35016;55.674;37.468;2022-11-21T09:17:54;12.80;;;7.38;;
49177;SDS011;35016;55.674;37.468;2022-11-21T09:20:48;12.85;;;6.70;;
49177;SDS011;35016;55.674;37.468;2022-11-21T09:23:16;13.07;;;6.68;;
49177;SDS011;35016;55.674;37.468;2022-11-21T09:25:43;14.35;;;6.85;;
49177;SDS011;35016;55.674;37.468;2022-11-21T09:28:12;14.30;;;7.68;;
49177;SDS011;35016;55.674;37.468;2022-11-21T09:30:41;17.92;;;8.68;;
49177;SDS011;35016;55.674;37.468;2022-11-21T09:33:09;15.13;;;7.55;;
49177;SDS011;35016;55.674;37.468;2022-11-21T09:35:37;12.82;;;7.32;;
49177;SDS011;35016;55.674;37.468;2022-11-21T09:38:08;13.80;;;7.10;;
49177;SDS011;35016;55.674;37.468;2022-11-21T09:40:36;17.42;;;7.75;;
49177;SDS011;35016;55.674;37.468;2022-11-21T09:46:23;14.45;;;7.30;;
49177;SDS011;35016;55.674;37.468;2022-11-21T09:48:57;14.50;;;7.50;;
49177;SDS011;35016;55.674;37.468;2022-11-21T09:51:30;11.18;;;6.22;;
49177;SDS011;35016;55.674;37.468;2022-11-21T09:53:58;12.00;;;6.75;;
49177;SDS011;35016;55.674;37.468;2022-11-21T09:56:30;13.38;;;6.47;;
49177;SDS011;35016;55.674;37.468;2022-11-21T10:01:32;15.50;;;7.47;;
49177;SDS011;35016;55.674;37.468;2022-11-21T10:03:59;13.98;;;7.20;;
49177;SDS011;35016;55.674;37.468;2022-11-21T10:06:29;14.60;;;7.47;;
49177;SDS011;35016;55.674;37.468;2022-11-21T10:12:00;12.98;;;8.65;;
49177;SDS011;35016;55.674;37.468;2022-11-21T10:15:12;14.30;;;7.40;;
49177;SDS011;35016;55.674;37.468;2022-11-21T10:25:36;15.82;;;8.50;;
49177;SDS011;35016;55.674;37.468;2022-11-21T10:28:16;13.30;;;7.95;;
49177;SDS011;35016;55.674;37.468;2022-11-21T10:30:48;16.20;;;8.65;;
49177;SDS011;35016;55.674;37.468;2022-11-21T10:33:20;14.65;;;7.07;;
49177;SDS011;35016;55.674;37.468;2022-11-21T10:35:54;17.30;;;6.97;;
49177;SDS011;35016;55.674;37.468;2022-11-21T10:38:26;11.98;;;6.65;;
49177;SDS011;35016;55.674;37.468;2022-11-21T10:41:02;16.08;;;7.78;;
49177;SDS011;35016;55.674;37.468;2022-11-21T10:46:27;11.27;;;6.85;;
49177;SDS011;35016;55.674;37.468;2022-11-21T10:48:55;16.33;;;8.07;;
49177;SDS011;35016;55.674;37.468;2022-11-21T10:52:11;13.65;;;7.60;;
49177;SDS011;35016;55.674;37.468;2022-11-21T10:54:24;14.43;;;8.07;;
49177;SDS011;35016;55.674;37.468;2022-11-21T10:57:11;13.38;;;6.78;;
49177;SDS011;35016;55.674;37.468;2022-11-21T11:00:00;15.07;;;7.75;;
49177;SDS011;35016;55.674;37.468;2022-11-21T11:05:41;13.93;;;6.80;;
49177;SDS011;35016;55.674;37.468;2022-11-21T11:08:21;12.57;;;7.10;;
49177;SDS011;35016;55.674;37.468;2022-11-21T11:11:02;14.23;;;6.55;;
49177;SDS011;35016;55.674;37.468;2022-11-21T11:13:34;14.88;;;7.15;;
49177;SDS011;35016;55.674;37.468;2022-11-21T11:16:23;15.07;;;7.32;;
49177;SDS011;35016;55.674;37.468;2022-11-21T11:21:22;13.73;;;6.68;;
49177;SDS011;35016;55.674;37.468;2022-11-21T11:24:05;13.70;;;6.32;;
49177;SDS011;35016;55.674;37.468;2022-11-21T11:34:39;13.52;;;6.57;;
49177;SDS011;35016;55.674;37.468;2022-11-21T11:40:49;11.55;;;5.93;;
49177;SDS011;35016;55.674;37.468;2022-11-21T11:57:58;12.27;;;5.60;;
49177;SDS011;35016;55.674;37.468;2022-11-21T12:00:42;11.95;;;5.95;;
49177;SDS011;35016;55.674;37.468;2022-11-21T12:03:15;12.68;;;6.15;;
49177;SDS011;35016;55.674;37.468;2022-11-21T12:05:59;10.85;;;4.90;;
49177;SDS011;35016;55.674;37.468;2022-11-21T12:08:37;10.40;;;4.65;;
49177;SDS011;35016;55.674;37.468;2022-11-21T12:11:21;14.32;;;7.55;;
49177;SDS011;35016;55.674;37.468;2022-11-21T12:20:11;13.90;;;6.60;;
49177;SDS011;35016;55.674;37.468;2022-11-21T12:22:46;13.25;;;5.57;;
49177;SDS011;35016;55.674;37.468;2022-11-21T12:25:15;13.40;;;6.57;;
49177;SDS011;35016;55.674;37.468;2022-11-21T12:27:48;12.70;;;6.47;;
49177;SDS011;35016;55.674;37.468;2022-11-21T12:36:09;12.18;;;6.25;;
49177;SDS011;35016;55.674;37.468;2022-11-21T12:41:47;14.73;;;6.68;;
49177;SDS011;35016;55.674;37.468;2022-11-21T12:50:28;11.57;;;6.10;;
49177;SDS011;35016;55.674;37.468;2022-11-21T12:53:47;12.80;;;5.88;;
49177;SDS011;35016;55.674;37.468;2022-11-21T12:56:50;12.20;;;6.28;;
49177;SDS011;35016;55.674;37.468;2022-11-21T12:59:24;12.68;;;7.22;;
49177;SDS011;35016;55.674;37.468;2022-11-21T13:01:56;13.18;;;6.53;;
49177;SDS011;35016;55.674;37.468;2022-11-21T13:06:56;12.18;;;6.05;;
49177;SDS011;35016;55.674;37.468;2022-11-21T13:09:24;15.20;;;7.00;;
49177;SDS011;35016;55.674;37.468;2022-11-21T13:14:40;17.67;;;7.78;;
49177;SDS011;35016;55.674;37.468;2022-11-21T13:19:53;12.13;;;6.13;;
49177;SDS011;35016;55.674;37.468;2022-11-21T13:30:50;15.18;;;5.50;;
49177;SDS011;35016;55.674;37.468;2022-11-21T13:47:11;10.27;;;4.93;;
49177;SDS011;35016;55.674;37.468;2022-11-21T13:49:56;13.25;;;5.72;;
49177;SDS011;35016;55.674;37.468;2022-11-21T13:52:44;10.68;;;5.72;;
49177;SDS011;35016;55.674;37.468;2022-11-21T13:58:13;12.70;;;5.65;;
49177;SDS011;35016;55.674;37.468;2022-11-21T14:00:54;10.60;;;4.68;;
49177;SDS011;35016;55.674;37.468;2022-11-21T14:06:37;11.93;;;5.88;;
49177;SDS011;35016;55.674;37.468;2022-11-21T14:12:17;11.80;;;5.70;;
49177;SDS011;35016;55.674;37.468;2022-11-21T14:14:48;12.32;;;5.55;;
49177;SDS011;35016;55.674;37.468;2022-11-21T14:23:04;11.95;;;5.47;;
49177;SDS011;35016;55.674;37.468;2022-11-21T14:26:01;11.48;;;5.78;;
49177;SDS011;35016;55.674;37.468;2022-11-21T14:28:48;12.40;;;5.88;;
49177;SDS011;35016;55.674;37.468;2022-11-21T14:31:19;11.50;;;5.90;;
49177;SDS011;35016;55.674;37.468;2022-11-21T14:33:47;11.30;;;5.80;;
49177;SDS011;35016;55.674;37.468;2022-11-21T14:36:25;10.18;;;5.22;;
49177;SDS011;35016;55.674;37.468;2022-11-21T14:39:05;11.77;;;5.38;;
49177;SDS011;35016;55.674;37.468;2022-11-21T14:41:58;12.00;;;5.70;;
49177;SDS011;35016;55.674;37.468;2022-11-21T14:44:28;12.88;;;5.70;;
49177;SDS011;35016;55.674;37.468;2022-11-21T14:47:30;12.63;;;6.75;;
49177;SDS011;35016;55.674;37.468;2022-11-21T14:49:53;12.80;;;6.75;;
49177;SDS011;35016;55.674;37.468;2022-11-21T14:52:35;13.65;;;6.10;;
49177;SDS011;35016;55.674;37.468;2022-11-21T14:55:03;11.00;;;5.63;;
49177;SDS011;35016;55.674;37.468;2022-11-21T14:57:53;10.55;;;5.30;;
49177;SDS011;35016;55.674;37.468;2022-11-21T15:00:29;11.98;;;5.75;;
49177;SDS011;35016;55.674;37.468;2022-11-21T15:03:19;10.93;;;5.28;;
49177;SDS011;35016;55.674;37.468;2022-11-21T15:05:48;13.10;;;6.07;;
49177;SDS011;35016;55.674;37.468;2022-11-21T15:08:32;12.45;;;6.70;;
49177;SDS011;35016;55.674;37.468;2022-11-21T15:11:27;12.10;;;6.43;;
49177;SDS011;35016;55.674;37.468;2022-11-21T15:13:58;11.68;;;5.95;;
49177;SDS011;35016;55.674;37.468;2022-11-21T15:16:45;12.32;;;6.22;;
49177;SDS011;35016;55.674;37.468;2022-11-21T15:19:17;14.68;;;7.32;;
49177;SDS011;35016;55.674;37.468;2022-11-21T15:21:46;11.13;;;5.22;;
49177;SDS011;35016;55.674;37.468;2022-11-21T15:24:16;11.43;;;5.78;;
49177;SDS011;35016;55.674;37.468;2022-11-21T15:26:53;9.95;;;5.15;;
49177;SDS011;35016;55.674;37.468;2022-11-21T15:29:21;12.65;;;6.05;;
49177;SDS011;35016;55.674;37.468;2022-11-21T15:32:08;12.45;;;5.95;;
49177;SDS011;35016;55.674;37.468;2022-11-21T15:34:44;10.48;;;5.30;;
49177;SDS011;35016;55.674;37.468;2022-11-21T15:37:16;12.85;;;6.38;;
49177;SDS011;35016;55.674;37.468;2022-11-21T15:39:46;12.07;;;6.97;;
49177;SDS011;35016;55.674;37.468;2022-11-21T15:45:01;12.32;;;6.05;;
49177;SDS011;35016;55.674;37.468;2022-11-21T15:47:45;12.40;;;4.72;;
49177;SDS011;35016;55.674;37.468;2022-11-21T15:50:14;13.02;;;7.43;;
49177;SDS011;35016;55.674;37.468;2022-11-21T15:52:45;12.35;;;6.15;;
49177;SDS011;35016;55.674;37.468;2022-11-21T15:55:21;14.68;;;6.18;;
49177;SDS011;35016;55.674;37.468;2022-11-21T15:57:55;12.43;;;6.03;;
49177;SDS011;35016;55.674;37.468;2022-11-21T16:00:25;12.95;;;6.10;;
49177;SDS011;35016;55.674;37.468;2022-11-21T16:02:53;12.55;;;5.88;;
49177;SDS011;35016;55.674;37.468;2022-11-21T16:05:21;12.57;;;5.95;;
49177;SDS011;35016;55.674;37.468;2022-11-21T16:07:58;14.88;;;7.15;;
49177;SDS011;35016;55.674;37.468;2022-11-21T16:10:25;13.02;;;6.85;;
49177;SDS011;35016;55.674;37.468;2022-11-21T16:12:54;15.18;;;7.80;;
49177;SDS011;35016;55.674;37.468;2022-11-21T16:15:22;12.35;;;7.53;;
49177;SDS011;35016;55.674;37.468;2022-11-21T16:17:51;14.90;;;7.20;;
49177;SDS011;35016;55.674;37.468;2022-11-21T16:20:18;13.15;;;7.53;;
49177;SDS011;35016;55.674;37.468;2022-11-21T16:22:45;13.07;;;7.75;;
49177;SDS011;35016;55.674;37.468;2022-11-21T16:25:15;13.35;;;8.15;;
49177;SDS011;35016;55.674;37.468;2022-11-21T16:27:42;13.52;;;7.13;;
49177;SDS011;35016;55.674;37.468;2022-11-21T16:30:10;12.45;;;7.10;;
49177;SDS011;35016;55.674;37.468;2022-11-21T16:32:37;12.32;;;6.60;;
49177;SDS011;35016;55.674;37.468;2022-11-21T16:35:05;17.98;;;7.78;;
49177;SDS011;35016;55.674;37.468;2022-11-21T16:37:32;15.88;;;7.40;;
49177;SDS011;35016;55.674;37.468;2022-11-21T16:40:00;14.48;;;8.05;;
49177;SDS011;35016;55.674;37.468;2022-11-21T16:42:38;15.10;;;7.65;;
49177;SDS011;35016;55.674;37.468;2022-11-21T16:45:07;14.60;;;7.25;;
49177;SDS011;35016;55.674;37.468;2022-11-21T16:47:40;17.52;;;7.72;;
49177;SDS011;35016;55.674;37.468;2022-11-21T16:50:14;14.63;;;8.40;;
49177;SDS011;35016;55.674;37.468;2022-11-21T16:52:43;18.08;;;7.93;;
49177;SDS011;35016;55.674;37.468;2022-11-21T16:55:11;14.60;;;7.80;;
49177;SDS011;35016;55.674;37.468;2022-11-21T16:57:39;16.13;;;7.22;;
49177;SDS011;35016;55.674;37.468;2022-11-21T17:00:08;19.15;;;8.15;;
49177;SDS011;35016;55.674;37.468;2022-11-21T17:02:40;13.70;;;8.07;;
49177;SDS011;35016;55.674;37.468;2022-11-21T17:05:13;16.73;;;7.45;;